sensor_id;sensor_type;location;lat;lon;timestamp;temperature;humidity
16134;DHT22;8172;45.018;5.972;2022-07-23T00:01:17;24.40;46.20
16134;DHT22;8172;45.018;5.972;2022-07-23T00:06:29;24.40;46.20
16134;DHT22;8172;45.018;5.972;2022-07-23T00:11:37;24.30;46.30
16134;DHT22;8172;45.018;5.972;2022-07-23T00:16:46;24.20;46.50
16134;DHT22;8172;45.018;5.972;2022-07-23T00:21:54;24.20;46.50
16134;DHT22;8172;45.018;5.972;2022-07-23T00:27:03;24.10;46.60
16134;DHT22;8172;45.018;5.972;2022-07-23T00:32:13;24.10;46.50
16134;DHT22;8172;45.018;5.972;2022-07-23T00:37:24;24.00;46.50
16134;DHT22;8172;45.018;5.972;2022-07-23T00:42:32;23.90;46.50
16134;DHT22;8172;45.018;5.972;2022-07-23T00:47:42;23.90;46.60
16134;DHT22;8172;45.018;5.972;2022-07-23T00:52:53;23.90;46.80
16134;DHT22;8172;45.018;5.972;2022-07-23T00:58:01;23.90;46.80
16134;DHT22;8172;45.018;5.972;2022-07-23T01:03:09;24.00;46.80
16134;DHT22;8172;45.018;5.972;2022-07-23T01:08:17;24.00;46.90
16134;DHT22;8172;45.018;5.972;2022-07-23T01:13:26;24.00;47.00
16134;DHT22;8172;45.018;5.972;2022-07-23T01:18:33;24.10;46.90
16134;DHT22;8172;45.018;5.972;2022-07-23T01:23:41;24.10;46.90
16134;DHT22;8172;45.018;5.972;2022-07-23T01:28:48;24.10;46.90
16134;DHT22;8172;45.018;5.972;2022-07-23T01:33:57;24.20;47.00
16134;DHT22;8172;45.018;5.972;2022-07-23T01:39:06;24.20;47.10
16134;DHT22;8172;45.018;5.972;2022-07-23T01:44:14;24.20;47.00
16134;DHT22;8172;45.018;5.972;2022-07-23T01:49:22;24.20;47.10
16134;DHT22;8172;45.018;5.972;2022-07-23T01:54:33;24.10;47.40
16134;DHT22;8172;45.018;5.972;2022-07-23T01:59:42;24.10;47.50
16134;DHT22;8172;45.018;5.972;2022-07-23T02:04:50;24.00;47.70
16134;DHT22;8172;45.018;5.972;2022-07-23T02:09:58;23.90;48.00
16134;DHT22;8172;45.018;5.972;2022-07-23T02:15:06;23.80;48.10
16134;DHT22;8172;45.018;5.972;2022-07-23T02:20:17;23.80;48.00
16134;DHT22;8172;45.018;5.972;2022-07-23T02:25:28;23.80;48.00
16134;DHT22;8172;45.018;5.972;2022-07-23T02:30:37;23.80;48.10
16134;DHT22;8172;45.018;5.972;2022-07-23T02:35:46;23.80;48.20
16134;DHT22;8172;45.018;5.972;2022-07-23T02:40:55;23.70;48.30
16134;DHT22;8172;45.018;5.972;2022-07-23T02:46:02;23.70;48.50
16134;DHT22;8172;45.018;5.972;2022-07-23T02:51:11;23.60;48.60
16134;DHT22;8172;45.018;5.972;2022-07-23T02:56:22;23.60;48.80
16134;DHT22;8172;45.018;5.972;2022-07-23T03:01:30;23.50;49.00
16134;DHT22;8172;45.018;5.972;2022-07-23T03:06:37;23.50;49.10
16134;DHT22;8172;45.018;5.972;2022-07-23T03:11:45;23.50;49.20
16134;DHT22;8172;45.018;5.972;2022-07-23T03:16:53;23.40;49.20
16134;DHT22;8172;45.018;5.972;2022-07-23T03:22:00;23.40;49.20
16134;DHT22;8172;45.018;5.972;2022-07-23T03:27:10;23.40;49.40
16134;DHT22;8172;45.018;5.972;2022-07-23T03:32:21;23.40;49.40
16134;DHT22;8172;45.018;5.972;2022-07-23T03:37:29;23.40;49.50
16134;DHT22;8172;45.018;5.972;2022-07-23T03:42:37;23.40;49.50
16134;DHT22;8172;45.018;5.972;2022-07-23T03:47:49;23.30;49.40
16134;DHT22;8172;45.018;5.972;2022-07-23T03:53:00;23.30;49.50
16134;DHT22;8172;45.018;5.972;2022-07-23T03:58:10;23.20;49.60
16134;DHT22;8172;45.018;5.972;2022-07-23T04:03:18;23.20;49.60
16134;DHT22;8172;45.018;5.972;2022-07-23T04:08:27;23.10;49.70
16134;DHT22;8172;45.018;5.972;2022-07-23T04:13:35;23.10;49.70
16134;DHT22;8172;45.018;5.972;2022-07-23T04:18:43;23.00;49.90
16134;DHT22;8172;45.018;5.972;2022-07-23T04:23:53;23.00;50.00
16134;DHT22;8172;45.018;5.972;2022-07-23T04:29:00;23.00;50.20
16134;DHT22;8172;45.018;5.972;2022-07-23T04:34:10;22.90;50.30
16134;DHT22;8172;45.018;5.972;2022-07-23T04:39:20;22.90;50.20
16134;DHT22;8172;45.018;5.972;2022-07-23T04:44:29;22.80;50.20
16134;DHT22;8172;45.018;5.972;2022-07-23T04:49:37;22.70;50.20
16134;DHT22;8172;45.018;5.972;2022-07-23T04:54:45;22.70;50.40
16134;DHT22;8172;45.018;5.972;2022-07-23T04:59:53;22.70;50.60
16134;DHT22;8172;45.018;5.972;2022-07-23T05:05:02;22.60;51.10
16134;DHT22;8172;45.018;5.972;2022-07-23T05:10:10;22.60;51.10
16134;DHT22;8172;45.018;5.972;2022-07-23T05:15:18;22.60;51.30
16134;DHT22;8172;45.018;5.972;2022-07-23T05:20:26;22.60;51.50
16134;DHT22;8172;45.018;5.972;2022-07-23T05:25:35;22.70;51.90
16134;DHT22;8172;45.018;5.972;2022-07-23T05:30:42;22.70;52.10
16134;DHT22;8172;45.018;5.972;2022-07-23T05:35:52;22.70;53.00
16134;DHT22;8172;45.018;5.972;2022-07-23T05:41:02;22.70;53.60
16134;DHT22;8172;45.018;5.972;2022-07-23T05:46:10;22.70;54.20
16134;DHT22;8172;45.018;5.972;2022-07-23T05:51:23;22.70;54.60
16134;DHT22;8172;45.018;5.972;2022-07-23T05:56:32;22.70;55.60
16134;DHT22;8172;45.018;5.972;2022-07-23T06:01:40;22.70;56.10
16134;DHT22;8172;45.018;5.972;2022-07-23T06:06:49;22.70;55.80
16134;DHT22;8172;45.018;5.972;2022-07-23T06:11:58;22.60;56.10
16134;DHT22;8172;45.018;5.972;2022-07-23T06:17:08;22.50;56.50
16134;DHT22;8172;45.018;5.972;2022-07-23T06:22:20;22.50;57.00
16134;DHT22;8172;45.018;5.972;2022-07-23T06:27:29;22.40;57.10
16134;DHT22;8172;45.018;5.972;2022-07-23T06:32:38;22.30;57.10
16134;DHT22;8172;45.018;5.972;2022-07-23T06:37:47;22.30;57.40
16134;DHT22;8172;45.018;5.972;2022-07-23T06:42:55;22.20;57.50
16134;DHT22;8172;45.018;5.972;2022-07-23T06:48:05;22.30;57.60
16134;DHT22;8172;45.018;5.972;2022-07-23T06:53:13;22.40;57.70
16134;DHT22;8172;45.018;5.972;2022-07-23T06:58:23;22.50;57.70
16134;DHT22;8172;45.018;5.972;2022-07-23T07:03:32;22.60;57.60
16134;DHT22;8172;45.018;5.972;2022-07-23T07:08:40;22.70;57.70
16134;DHT22;8172;45.018;5.972;2022-07-23T07:13:50;22.70;57.70
16134;DHT22;8172;45.018;5.972;2022-07-23T07:19:00;22.70;57.80
16134;DHT22;8172;45.018;5.972;2022-07-23T07:24:09;22.80;57.80
16134;DHT22;8172;45.018;5.972;2022-07-23T07:29:17;23.00;57.50
16134;DHT22;8172;45.018;5.972;2022-07-23T07:34:27;23.10;57.30
16134;DHT22;8172;45.018;5.972;2022-07-23T07:39:36;23.20;56.90
16134;DHT22;8172;45.018;5.972;2022-07-23T07:44:44;23.40;57.10
16134;DHT22;8172;45.018;5.972;2022-07-23T07:49:53;23.50;57.00
16134;DHT22;8172;45.018;5.972;2022-07-23T07:55:05;23.60;56.60
16134;DHT22;8172;45.018;5.972;2022-07-23T08:00:17;23.80;56.40
16134;DHT22;8172;45.018;5.972;2022-07-23T08:05:27;23.90;56.10
16134;DHT22;8172;45.018;5.972;2022-07-23T08:10:36;24.10;55.90
16134;DHT22;8172;45.018;5.972;2022-07-23T08:15:44;24.20;55.60
16134;DHT22;8172;45.018;5.972;2022-07-23T08:20:54;24.40;54.90
16134;DHT22;8172;45.018;5.972;2022-07-23T08:26:20;24.40;54.90
16134;DHT22;8172;45.018;5.972;2022-07-23T08:31:29;24.40;54.60
16134;DHT22;8172;45.018;5.972;2022-07-23T08:36:37;24.50;54.20
16134;DHT22;8172;45.018;5.972;2022-07-23T08:41:48;24.60;54.10
16134;DHT22;8172;45.018;5.972;2022-07-23T08:46:57;24.80;53.40
16134;DHT22;8172;45.018;5.972;2022-07-23T08:52:05;24.90;53.00
16134;DHT22;8172;45.018;5.972;2022-07-23T08:57:15;25.00;52.10
16134;DHT22;8172;45.018;5.972;2022-07-23T09:02:23;24.90;52.30
16134;DHT22;8172;45.018;5.972;2022-07-23T09:07:31;25.00;53.00
16134;DHT22;8172;45.018;5.972;2022-07-23T09:12:40;25.10;52.70
16134;DHT22;8172;45.018;5.972;2022-07-23T09:17:50;25.10;53.20
16134;DHT22;8172;45.018;5.972;2022-07-23T09:23:01;25.30;53.20
16134;DHT22;8172;45.018;5.972;2022-07-23T09:28:13;25.50;52.70
16134;DHT22;8172;45.018;5.972;2022-07-23T09:33:24;25.60;52.50
16134;DHT22;8172;45.018;5.972;2022-07-23T09:43:54;25.70;51.20
16134;DHT22;8172;45.018;5.972;2022-07-23T09:49:10;25.70;50.80
16134;DHT22;8172;45.018;5.972;2022-07-23T09:54:22;25.80;50.80
16134;DHT22;8172;45.018;5.972;2022-07-23T09:59:37;25.80;51.20
16134;DHT22;8172;45.018;5.972;2022-07-23T10:04:48;25.90;50.90
16134;DHT22;8172;45.018;5.972;2022-07-23T10:10:06;26.00;50.30
16134;DHT22;8172;45.018;5.972;2022-07-23T10:15:17;26.10;50.70
16134;DHT22;8172;45.018;5.972;2022-07-23T10:20:41;26.30;49.70
16134;DHT22;8172;45.018;5.972;2022-07-23T10:26:05;26.40;49.20
16134;DHT22;8172;45.018;5.972;2022-07-23T10:47:26;26.90;46.50
16134;DHT22;8172;45.018;5.972;2022-07-23T10:58:45;27.00;46.10
16134;DHT22;8172;45.018;5.972;2022-07-23T11:03:55;27.00;45.80
16134;DHT22;8172;45.018;5.972;2022-07-23T11:09:25;27.10;45.90
16134;DHT22;8172;45.018;5.972;2022-07-23T11:20:26;27.30;45.90
16134;DHT22;8172;45.018;5.972;2022-07-23T11:25:46;27.40;45.80
16134;DHT22;8172;45.018;5.972;2022-07-23T11:31:16;27.50;45.40
16134;DHT22;8172;45.018;5.972;2022-07-23T11:36:30;27.60;45.10
16134;DHT22;8172;45.018;5.972;2022-07-23T11:42:08;27.60;44.70
16134;DHT22;8172;45.018;5.972;2022-07-23T11:47:23;27.70;44.90
16134;DHT22;8172;45.018;5.972;2022-07-23T11:52:51;27.80;45.10
16134;DHT22;8172;45.018;5.972;2022-07-23T11:58:10;27.90;44.80
16134;DHT22;8172;45.018;5.972;2022-07-23T12:08:53;27.80;45.00
16134;DHT22;8172;45.018;5.972;2022-07-23T12:14:06;27.70;45.20
16134;DHT22;8172;45.018;5.972;2022-07-23T12:19:27;27.50;45.60
16134;DHT22;8172;45.018;5.972;2022-07-23T12:30:26;27.40;45.90
16134;DHT22;8172;45.018;5.972;2022-07-23T12:35:48;27.50;46.00
16134;DHT22;8172;45.018;5.972;2022-07-23T12:41:29;27.50;45.60
16134;DHT22;8172;45.018;5.972;2022-07-23T12:46:49;27.50;45.50
16134;DHT22;8172;45.018;5.972;2022-07-23T12:52:14;27.40;45.10
16134;DHT22;8172;45.018;5.972;2022-07-23T12:57:53;27.40;45.60
16134;DHT22;8172;45.018;5.972;2022-07-23T13:03:22;27.30;46.00
16134;DHT22;8172;45.018;5.972;2022-07-23T13:08:37;27.30;46.00
16134;DHT22;8172;45.018;5.972;2022-07-23T13:13:52;27.20;46.00
16134;DHT22;8172;45.018;5.972;2022-07-23T13:19:11;27.20;45.80
16134;DHT22;8172;45.018;5.972;2022-07-23T13:24:22;27.20;45.80
16134;DHT22;8172;45.018;5.972;2022-07-23T13:29:46;27.30;46.10
16134;DHT22;8172;45.018;5.972;2022-07-23T13:35:07;27.40;46.50
16134;DHT22;8172;45.018;5.972;2022-07-23T13:40:23;27.60;46.00
16134;DHT22;8172;45.018;5.972;2022-07-23T13:45:36;27.70;46.30
16134;DHT22;8172;45.018;5.972;2022-07-23T13:50:51;27.70;46.60
16134;DHT22;8172;45.018;5.972;2022-07-23T13:56:11;27.70;46.20
16134;DHT22;8172;45.018;5.972;2022-07-23T14:01:48;27.70;46.70
16134;DHT22;8172;45.018;5.972;2022-07-23T14:07:04;28.00;46.70
16134;DHT22;8172;45.018;5.972;2022-07-23T14:12:24;28.10;46.70
16134;DHT22;8172;45.018;5.972;2022-07-23T14:17:41;28.20;46.30
16134;DHT22;8172;45.018;5.972;2022-07-23T14:22:52;28.20;46.10
16134;DHT22;8172;45.018;5.972;2022-07-23T14:28:14;28.30;46.20
16134;DHT22;8172;45.018;5.972;2022-07-23T14:33:32;28.30;46.00
16134;DHT22;8172;45.018;5.972;2022-07-23T14:38:51;28.20;46.50
16134;DHT22;8172;45.018;5.972;2022-07-23T14:44:10;28.20;46.90
16134;DHT22;8172;45.018;5.972;2022-07-23T14:49:28;28.30;46.60
16134;DHT22;8172;45.018;5.972;2022-07-23T14:54:41;28.30;47.00
16134;DHT22;8172;45.018;5.972;2022-07-23T14:59:51;28.50;47.00
16134;DHT22;8172;45.018;5.972;2022-07-23T15:05:07;28.70;47.40
16134;DHT22;8172;45.018;5.972;2022-07-23T15:10:21;28.90;47.20
16134;DHT22;8172;45.018;5.972;2022-07-23T15:15:38;29.10;46.80
16134;DHT22;8172;45.018;5.972;2022-07-23T15:21:03;29.10;46.70
16134;DHT22;8172;45.018;5.972;2022-07-23T15:26:15;29.10;46.80
16134;DHT22;8172;45.018;5.972;2022-07-23T15:31:29;29.10;47.00
16134;DHT22;8172;45.018;5.972;2022-07-23T15:36:40;29.20;47.10
16134;DHT22;8172;45.018;5.972;2022-07-23T15:41:52;29.10;47.20
16134;DHT22;8172;45.018;5.972;2022-07-23T15:47:27;29.10;47.30
16134;DHT22;8172;45.018;5.972;2022-07-23T15:52:53;29.10;47.20
16134;DHT22;8172;45.018;5.972;2022-07-23T15:58:22;29.00;47.40
16134;DHT22;8172;45.018;5.972;2022-07-23T16:03:47;28.90;47.70
16134;DHT22;8172;45.018;5.972;2022-07-23T16:09:08;28.90;47.60
16134;DHT22;8172;45.018;5.972;2022-07-23T16:14:21;28.80;48.00
16134;DHT22;8172;45.018;5.972;2022-07-23T16:20:23;28.70;48.10
16134;DHT22;8172;45.018;5.972;2022-07-23T16:25:36;28.40;48.30
16134;DHT22;8172;45.018;5.972;2022-07-23T16:25:37;28.40;48.30
16134;DHT22;8172;45.018;5.972;2022-07-23T16:31:02;28.10;48.90
16134;DHT22;8172;45.018;5.972;2022-07-23T16:36:17;27.90;49.10
16134;DHT22;8172;45.018;5.972;2022-07-23T16:41:36;27.80;49.60
16134;DHT22;8172;45.018;5.972;2022-07-23T16:46:47;27.60;49.90
16134;DHT22;8172;45.018;5.972;2022-07-23T16:51:58;27.50;50.00
16134;DHT22;8172;45.018;5.972;2022-07-23T16:57:09;27.40;50.50
16134;DHT22;8172;45.018;5.972;2022-07-23T17:02:33;27.20;50.90
16134;DHT22;8172;45.018;5.972;2022-07-23T17:07:51;27.00;51.30
16134;DHT22;8172;45.018;5.972;2022-07-23T17:13:10;26.80;51.60
16134;DHT22;8172;45.018;5.972;2022-07-23T17:18:20;26.70;52.00
16134;DHT22;8172;45.018;5.972;2022-07-23T17:23:30;26.60;52.30
16134;DHT22;8172;45.018;5.972;2022-07-23T17:28:39;26.50;52.60
16134;DHT22;8172;45.018;5.972;2022-07-23T17:33:50;26.30;52.70
16134;DHT22;8172;45.018;5.972;2022-07-23T17:38:59;26.30;52.80
16134;DHT22;8172;45.018;5.972;2022-07-23T17:44:11;26.30;52.90
16134;DHT22;8172;45.018;5.972;2022-07-23T17:49:19;26.20;53.00
16134;DHT22;8172;45.018;5.972;2022-07-23T17:54:29;26.20;53.00
16134;DHT22;8172;45.018;5.972;2022-07-23T17:59:39;26.20;53.30
16134;DHT22;8172;45.018;5.972;2022-07-23T18:04:51;26.20;53.50
16134;DHT22;8172;45.018;5.972;2022-07-23T18:10:01;26.10;53.50
16134;DHT22;8172;45.018;5.972;2022-07-23T18:15:11;26.10;53.80
16134;DHT22;8172;45.018;5.972;2022-07-23T18:20:20;26.10;53.90
16134;DHT22;8172;45.018;5.972;2022-07-23T18:25:46;26.10;54.00
16134;DHT22;8172;45.018;5.972;2022-07-23T18:30:56;26.00;54.10
16134;DHT22;8172;45.018;5.972;2022-07-23T18:36:07;26.00;54.20
16134;DHT22;8172;45.018;5.972;2022-07-23T18:41:20;26.00;54.40
16134;DHT22;8172;45.018;5.972;2022-07-23T18:46:29;26.00;54.50
16134;DHT22;8172;45.018;5.972;2022-07-23T18:51:38;26.00;54.40
16134;DHT22;8172;45.018;5.972;2022-07-23T18:56:49;26.00;54.50
16134;DHT22;8172;45.018;5.972;2022-07-23T19:02:00;25.90;54.70
16134;DHT22;8172;45.018;5.972;2022-07-23T19:07:13;25.80;54.90
16134;DHT22;8172;45.018;5.972;2022-07-23T19:12:22;25.80;55.10
16134;DHT22;8172;45.018;5.972;2022-07-23T19:17:35;25.70;55.20
16134;DHT22;8172;45.018;5.972;2022-07-23T19:22:53;25.60;55.40
16134;DHT22;8172;45.018;5.972;2022-07-23T19:28:11;25.50;55.60
16134;DHT22;8172;45.018;5.972;2022-07-23T19:33:21;25.50;55.70
16134;DHT22;8172;45.018;5.972;2022-07-23T19:38:33;25.40;56.00
16134;DHT22;8172;45.018;5.972;2022-07-23T19:43:46;25.30;56.30
16134;DHT22;8172;45.018;5.972;2022-07-23T19:49:00;25.20;56.40
16134;DHT22;8172;45.018;5.972;2022-07-23T19:54:13;25.10;56.60
16134;DHT22;8172;45.018;5.972;2022-07-23T19:59:21;25.10;56.70
16134;DHT22;8172;45.018;5.972;2022-07-23T20:04:38;25.00;56.90
16134;DHT22;8172;45.018;5.972;2022-07-23T20:09:52;24.90;57.20
16134;DHT22;8172;45.018;5.972;2022-07-23T20:15:11;24.70;57.40
16134;DHT22;8172;45.018;5.972;2022-07-23T20:20:48;24.50;57.80
16134;DHT22;8172;45.018;5.972;2022-07-23T20:26:19;24.30;58.20
16134;DHT22;8172;45.018;5.972;2022-07-23T20:31:33;24.10;58.50
16134;DHT22;8172;45.018;5.972;2022-07-23T20:36:48;24.10;58.90
16134;DHT22;8172;45.018;5.972;2022-07-23T20:42:14;24.00;59.10
16134;DHT22;8172;45.018;5.972;2022-07-23T20:47:49;24.00;59.60
16134;DHT22;8172;45.018;5.972;2022-07-23T20:53:13;23.80;59.90
16134;DHT22;8172;45.018;5.972;2022-07-23T20:58:22;23.50;60.20
16134;DHT22;8172;45.018;5.972;2022-07-23T21:03:48;23.30;60.40
16134;DHT22;8172;45.018;5.972;2022-07-23T21:09:13;23.10;61.00
16134;DHT22;8172;45.018;5.972;2022-07-23T21:14:36;22.90;61.30
16134;DHT22;8172;45.018;5.972;2022-07-23T21:19:59;22.80;61.50
16134;DHT22;8172;45.018;5.972;2022-07-23T21:25:28;22.80;61.70
16134;DHT22;8172;45.018;5.972;2022-07-23T21:30:47;22.70;61.90
16134;DHT22;8172;45.018;5.972;2022-07-23T21:36:10;22.60;62.00
16134;DHT22;8172;45.018;5.972;2022-07-23T21:41:35;22.60;62.10
16134;DHT22;8172;45.018;5.972;2022-07-23T21:46:51;22.50;62.30
16134;DHT22;8172;45.018;5.972;2022-07-23T21:52:17;22.40;62.40
16134;DHT22;8172;45.018;5.972;2022-07-23T21:57:36;22.30;62.50
16134;DHT22;8172;45.018;5.972;2022-07-23T22:02:48;22.30;62.80
16134;DHT22;8172;45.018;5.972;2022-07-23T22:08:00;22.20;62.80
16134;DHT22;8172;45.018;5.972;2022-07-23T22:13:25;22.20;62.90
16134;DHT22;8172;45.018;5.972;2022-07-23T22:18:36;22.30;62.90
16134;DHT22;8172;45.018;5.972;2022-07-23T22:23:45;22.30;62.80
16134;DHT22;8172;45.018;5.972;2022-07-23T22:28:58;22.40;62.70
16134;DHT22;8172;45.018;5.972;2022-07-23T22:34:08;22.40;62.80
16134;DHT22;8172;45.018;5.972;2022-07-23T22:39:23;22.50;62.80
16134;DHT22;8172;45.018;5.972;2022-07-23T22:44:36;22.50;62.80
16134;DHT22;8172;45.018;5.972;2022-07-23T22:49:46;22.50;62.50
16134;DHT22;8172;45.018;5.972;2022-07-23T22:54:54;22.40;62.50
16134;DHT22;8172;45.018;5.972;2022-07-23T23:00:05;22.40;62.60
16134;DHT22;8172;45.018;5.972;2022-07-23T23:05:13;22.40;62.80
16134;DHT22;8172;45.018;5.972;2022-07-23T23:10:21;22.40;62.80
16134;DHT22;8172;45.018;5.972;2022-07-23T23:15:30;22.40;62.70
16134;DHT22;8172;45.018;5.972;2022-07-23T23:20:52;22.40;62.80
16134;DHT22;8172;45.018;5.972;2022-07-23T23:26:01;22.40;62.90
16134;DHT22;8172;45.018;5.972;2022-07-23T23:31:09;22.30;63.00
16134;DHT22;8172;45.018;5.972;2022-07-23T23:36:18;22.30;63.10
16134;DHT22;8172;45.018;5.972;2022-07-23T23:41:27;22.20;63.10
16134;DHT22;8172;45.018;5.972;2022-07-23T23:46:35;22.20;63.00
16134;DHT22;8172;45.018;5.972;2022-07-23T23:51:44;22.20;63.00
16134;DHT22;8172;45.018;5.972;2022-07-23T23:56:52;22.20;63.30
